createdAt,value
2023-02-12T00:00:06.849Z,8.07
2023-02-12T00:02:34.676Z,8.37
2023-02-12T00:05:02.423Z,7.47
2023-02-12T00:07:30.908Z,7.83
2023-02-12T00:09:58.575Z,6.67
2023-02-12T00:12:26.272Z,8.47
2023-02-12T00:14:55.476Z,9.03
2023-02-12T00:17:23.576Z,9.20
2023-02-12T00:19:51.431Z,7.43
2023-02-12T00:22:19.109Z,6.90
2023-02-12T00:24:46.743Z,8.33
2023-02-12T00:27:14.469Z,6.47
2023-02-12T00:29:42.265Z,9.33
2023-02-12T00:32:11.844Z,5.67
2023-02-12T00:34:39.728Z,7.23
2023-02-12T00:37:07.379Z,7.90
2023-02-12T00:39:38.028Z,9.10
2023-02-12T00:42:06.084Z,8.60
2023-02-12T00:44:33.886Z,6.70
2023-02-12T00:47:02.452Z,5.53
2023-02-12T00:49:34.232Z,7.23
2023-02-12T00:52:02.332Z,7.63
2023-02-12T00:54:30.094Z,7.53
2023-02-12T00:56:57.871Z,8.87
2023-02-12T00:59:25.984Z,9.07
2023-02-12T01:01:55.452Z,8.33
2023-02-12T01:04:23.593Z,7.77
2023-02-12T01:06:52.645Z,8.37
2023-02-12T01:09:20.415Z,6.77
2023-02-12T01:11:48.171Z,8.73
2023-02-12T01:14:15.828Z,8.87
2023-02-12T01:16:43.473Z,6.70
2023-02-12T01:19:12.542Z,7.77
2023-02-12T01:21:40.442Z,7.30
2023-02-12T01:24:09.562Z,7.90
2023-02-12T01:26:37.638Z,7.07
2023-02-12T01:29:07.139Z,9.00
2023-02-12T01:31:35.667Z,8.53
2023-02-12T01:34:03.399Z,9.13
2023-02-12T01:36:31.836Z,8.07
2023-02-12T01:38:59.798Z,7.80
2023-02-12T01:41:29.699Z,9.40
2023-02-12T01:44:07.310Z,8.90
2023-02-12T01:46:35.068Z,8.57
2023-02-12T01:49:03.985Z,9.50
2023-02-12T01:51:32.837Z,9.30
2023-02-12T01:54:01.516Z,9.27
2023-02-12T01:56:31.306Z,10.73
2023-02-12T01:58:59.103Z,9.57
2023-02-12T02:01:28.524Z,8.30
2023-02-12T02:03:58.141Z,11.30
2023-02-12T02:06:27.778Z,10.87
2023-02-12T02:08:56.101Z,9.40
2023-02-12T02:11:41.628Z,7.57
2023-02-12T02:14:28.081Z,10.23
2023-02-12T02:17:01.857Z,8.23
2023-02-12T02:19:34.963Z,8.47
2023-02-12T02:22:08.844Z,9.20
2023-02-12T02:24:56.636Z,9.13
2023-02-12T02:27:28.247Z,9.50
2023-02-12T02:30:16.719Z,8.20
2023-02-12T02:32:51.260Z,9.40
2023-02-12T02:35:22.976Z,11.37
2023-02-12T02:37:53.067Z,10.40
2023-02-12T02:40:21.979Z,8.03
2023-02-12T02:42:53.461Z,11.33
2023-02-12T02:45:23.641Z,10.97
2023-02-12T02:47:54.347Z,12.40
2023-02-12T02:50:24.396Z,9.37
2023-02-12T02:52:54.560Z,11.30
2023-02-12T02:55:23.576Z,12.90
2023-02-12T02:57:53.881Z,12.37
2023-02-12T03:00:23.535Z,11.27
2023-02-12T03:02:56.367Z,11.50
2023-02-12T03:05:26.338Z,13.23
2023-02-12T03:07:57.102Z,14.13
2023-02-12T03:10:28.225Z,12.80
2023-02-12T03:12:58.713Z,12.27
2023-02-12T03:15:29.192Z,13.03
2023-02-12T03:17:59.743Z,14.53
2023-02-12T03:20:30.147Z,13.63
2023-02-12T03:22:59.913Z,12.53
2023-02-12T03:25:29.591Z,13.13
2023-02-12T03:28:00.418Z,12.13
2023-02-12T03:30:39.498Z,12.30
2023-02-12T03:33:11.296Z,14.30
2023-02-12T03:35:43.012Z,14.23
2023-02-12T03:38:16.326Z,14.73
2023-02-12T03:40:47.398Z,15.10
2023-02-12T03:43:20.399Z,12.57
2023-02-12T03:45:51.488Z,12.13
2023-02-12T03:48:23.338Z,12.70
2023-02-12T03:50:54.888Z,10.07
2023-02-12T03:53:22.603Z,10.07
2023-02-12T03:55:53.555Z,8.67
2023-02-12T03:58:22.679Z,12.10
2023-02-12T04:00:50.370Z,10.17
2023-02-12T04:03:18.121Z,10.97
2023-02-12T04:05:47.162Z,9.67
2023-02-12T04:08:15.032Z,10.73
2023-02-12T04:10:47.240Z,9.53
2023-02-12T04:13:18.407Z,11.10
2023-02-12T04:15:52.347Z,12.10
2023-02-12T04:18:22.588Z,10.67
2023-02-12T04:20:55.442Z,10.40
2023-02-12T04:23:31.799Z,9.50
2023-02-12T04:26:03.840Z,11.57
2023-02-12T04:28:37.023Z,11.80
2023-02-12T04:31:07.646Z,11.87
2023-02-12T04:33:36.870Z,11.97
2023-02-12T04:36:10.336Z,12.53
2023-02-12T04:38:40.174Z,12.23
2023-02-12T04:41:08.268Z,11.37
2023-02-12T04:43:37.073Z,11.70
2023-02-12T04:46:05.979Z,10.57
2023-02-12T04:48:34.715Z,12.63
2023-02-12T04:51:02.924Z,13.37
2023-02-12T04:53:31.958Z,12.00
2023-02-12T04:55:59.696Z,13.33
2023-02-12T04:58:27.303Z,12.33
2023-02-12T05:00:55.073Z,10.97
2023-02-12T05:03:22.862Z,12.93
2023-02-12T05:05:50.535Z,13.07
2023-02-12T05:08:18.160Z,13.50
2023-02-12T05:10:47.204Z,13.53
2023-02-12T05:13:14.906Z,12.03
2023-02-12T05:15:42.588Z,12.57
2023-02-12T05:18:10.291Z,10.97
2023-02-12T05:20:37.918Z,12.60
2023-02-12T05:23:05.541Z,9.97
2023-02-12T05:25:33.224Z,12.83
2023-02-12T05:28:02.314Z,10.17
2023-02-12T05:30:30.039Z,10.67
2023-02-12T05:32:57.796Z,10.53
2023-02-12T05:35:25.435Z,10.30
2023-02-12T05:37:53.071Z,9.27
2023-02-12T05:40:20.967Z,10.27
2023-02-12T05:42:48.619Z,11.73
2023-02-12T05:45:17.791Z,10.17
2023-02-12T05:47:45.540Z,9.40
2023-02-12T05:50:13.330Z,10.13
2023-02-12T05:52:40.988Z,8.13
2023-02-12T05:55:09.242Z,10.40
2023-02-12T05:57:37.024Z,9.70
2023-02-12T06:00:05.671Z,8.50
2023-02-12T06:02:35.950Z,9.57
2023-02-12T06:05:03.846Z,12.10
2023-02-12T06:07:31.493Z,10.17
2023-02-12T06:09:59.417Z,10.50
2023-02-12T06:12:27.203Z,11.03
2023-02-12T06:14:55.036Z,7.23
2023-02-12T06:17:22.654Z,7.77
2023-02-12T06:19:51.745Z,12.27
2023-02-12T06:22:19.388Z,11.33
2023-02-12T06:24:47.031Z,11.00
2023-02-12T06:27:14.772Z,9.73
2023-02-12T06:29:43.103Z,10.07
2023-02-12T06:32:13.613Z,9.33
2023-02-12T06:34:41.627Z,10.97
2023-02-12T06:37:10.698Z,8.00
2023-02-12T06:39:38.348Z,10.03
2023-02-12T06:42:06.186Z,9.43
2023-02-12T06:44:33.893Z,9.20
2023-02-12T06:47:01.544Z,9.93
2023-02-12T06:49:29.284Z,8.17
2023-02-12T06:51:57.030Z,8.83
2023-02-12T06:54:26.023Z,9.13
2023-02-12T06:56:53.678Z,9.50
2023-02-12T06:59:21.336Z,10.63
2023-02-12T07:01:48.946Z,9.57
2023-02-12T07:04:16.798Z,8.93
2023-02-12T07:06:44.508Z,9.93
2023-02-12T07:09:12.154Z,8.70
2023-02-12T07:11:41.196Z,9.17
2023-02-12T07:14:08.860Z,9.33
2023-02-12T07:16:36.642Z,9.40
2023-02-12T07:19:04.341Z,9.80
2023-02-12T07:21:32.191Z,9.77
2023-02-12T07:23:59.942Z,8.70
2023-02-12T07:26:27.773Z,11.00
2023-02-12T07:28:58.252Z,9.40
2023-02-12T07:31:26.025Z,6.63
2023-02-12T07:33:55.364Z,11.63
2023-02-12T07:36:23.370Z,10.27
2023-02-12T07:38:51.095Z,11.43
2023-02-12T07:41:20.132Z,9.73
2023-02-12T07:43:48.610Z,11.43
2023-02-12T07:46:18.858Z,13.00
2023-02-12T07:48:46.991Z,10.20
2023-02-12T07:51:15.588Z,11.03
2023-02-12T07:53:43.758Z,8.53
2023-02-12T07:56:12.435Z,11.17
2023-02-12T07:58:40.584Z,10.00
2023-02-12T08:01:15.853Z,10.03
2023-02-12T08:03:45.767Z,10.13
2023-02-12T08:06:14.374Z,10.80
2023-02-12T08:08:42.092Z,12.47
2023-02-12T08:11:10.207Z,11.27
2023-02-12T08:13:38.057Z,12.97
2023-02-12T08:16:06.802Z,11.70
2023-02-12T08:18:34.981Z,9.47
2023-02-12T08:21:04.966Z,13.67
2023-02-12T08:23:32.682Z,10.80
2023-02-12T08:26:07.204Z,11.43
2023-02-12T08:28:35.127Z,12.50
2023-02-12T08:31:03.150Z,12.73
2023-02-12T08:33:30.816Z,13.70
2023-02-12T08:36:02.906Z,11.47
2023-02-12T08:38:32.261Z,12.50
2023-02-12T08:41:01.976Z,12.40
2023-02-12T08:43:29.833Z,13.07
2023-02-12T08:46:02.359Z,12.67
2023-02-12T08:48:30.043Z,12.80
2023-02-12T08:50:57.759Z,13.47
2023-02-12T08:53:25.960Z,15.27
2023-02-12T08:55:55.395Z,12.60
2023-02-12T08:58:23.184Z,14.17
2023-02-12T09:00:50.914Z,13.97
2023-02-12T09:03:18.699Z,15.57
2023-02-12T09:05:46.366Z,14.60
2023-02-12T09:08:14.033Z,14.23
2023-02-12T09:10:41.854Z,14.50
2023-02-12T09:13:11.517Z,15.00
2023-02-12T09:15:39.289Z,14.07
2023-02-12T09:18:07.167Z,13.73
2023-02-12T09:20:34.812Z,15.23
2023-02-12T09:23:02.426Z,15.67
2023-02-12T09:25:30.082Z,12.63
2023-02-12T09:27:57.781Z,16.53
2023-02-12T09:30:26.815Z,15.87
2023-02-12T09:32:54.526Z,14.10
2023-02-12T09:35:22.308Z,14.67
2023-02-12T09:37:50.002Z,15.57
2023-02-12T09:40:18.430Z,14.17
2023-02-12T09:42:53.219Z,14.57
2023-02-12T09:45:22.416Z,14.90
2023-02-12T09:47:53.882Z,12.47
2023-02-12T09:50:30.209Z,14.17
2023-02-12T09:52:59.355Z,14.57
2023-02-12T09:55:29.152Z,14.83
2023-02-12T09:57:57.059Z,14.57
2023-02-12T10:00:28.071Z,14.50
2023-02-12T10:02:57.211Z,13.43
2023-02-12T10:05:26.687Z,14.57
2023-02-12T10:08:11.776Z,16.03
2023-02-12T10:10:48.325Z,18.13
2023-02-12T10:13:20.052Z,16.60
2023-02-12T10:15:52.656Z,14.50
2023-02-12T10:18:40.467Z,14.90
2023-02-12T10:21:15.482Z,15.47
2023-02-12T10:23:55.586Z,14.23
2023-02-12T10:26:25.893Z,16.50
2023-02-12T10:28:54.054Z,15.40
2023-02-12T10:31:28.516Z,16.03
2023-02-12T10:33:58.954Z,15.90
2023-02-12T10:36:32.432Z,16.07
2023-02-12T10:39:02.438Z,16.00
2023-02-12T10:41:31.577Z,17.60
2023-02-12T10:43:59.452Z,19.13
2023-02-12T10:46:31.245Z,16.70
2023-02-12T10:49:01.207Z,16.17
2023-02-12T10:51:46.458Z,18.13
2023-02-12T10:54:33.796Z,23.07
2023-02-12T10:57:06.059Z,17.70
2023-02-12T10:59:35.011Z,16.97
2023-02-12T11:02:03.627Z,17.27
2023-02-12T11:04:34.380Z,16.77
2023-02-12T11:07:03.628Z,19.10
2023-02-12T11:09:32.265Z,18.20
2023-02-12T11:11:59.983Z,22.13
2023-02-12T11:14:27.841Z,20.60
2023-02-12T11:16:56.128Z,19.87
2023-02-12T11:19:24.590Z,22.80
2023-02-12T11:21:53.810Z,20.93
2023-02-12T11:24:30.650Z,21.40
2023-02-12T11:27:14.701Z,21.57
2023-02-12T11:29:42.903Z,23.03
2023-02-12T11:32:16.441Z,20.97
2023-02-12T11:34:44.115Z,18.43
2023-02-12T11:37:16.404Z,20.63
2023-02-12T11:39:47.180Z,21.97
2023-02-12T11:42:17.208Z,22.30
2023-02-12T11:44:49.197Z,21.50
2023-02-12T11:47:19.083Z,26.90
2023-02-12T11:49:50.855Z,20.10
2023-02-12T11:52:22.461Z,26.33
2023-02-12T11:54:51.828Z,20.23
2023-02-12T11:57:38.266Z,19.67
2023-02-12T12:00:07.955Z,19.60
2023-02-12T12:02:39.303Z,17.23
2023-02-12T12:05:10.259Z,21.13
2023-02-12T12:07:41.598Z,19.33
2023-02-12T12:10:13.835Z,25.80
2023-02-12T12:12:43.540Z,26.73
2023-02-12T12:15:34.317Z,19.00
2023-02-12T12:18:22.791Z,18.07
2023-02-12T12:20:55.006Z,17.67
2023-02-12T12:23:26.426Z,19.00
2023-02-12T12:25:56.779Z,18.23
2023-02-12T12:28:29.353Z,21.10
2023-02-12T12:31:03.715Z,16.50
2023-02-12T12:33:34.907Z,17.00
2023-02-12T12:36:11.589Z,18.30
2023-02-12T12:38:46.206Z,14.40
2023-02-12T12:41:20.068Z,17.30
2023-02-12T12:43:57.059Z,17.30
2023-02-12T12:46:35.418Z,17.80
2023-02-12T12:49:09.013Z,18.30
2023-02-12T12:51:45.892Z,16.93
2023-02-12T12:54:20.287Z,19.60
2023-02-12T12:56:57.739Z,20.20
2023-02-12T12:59:36.514Z,19.47
2023-02-12T13:02:20.674Z,16.60
2023-02-12T13:05:07.053Z,16.50
2023-02-12T13:07:39.501Z,16.43
2023-02-12T13:10:15.881Z,18.20
2023-02-12T13:12:49.127Z,17.93
2023-02-12T13:15:20.554Z,18.63
2023-02-12T13:17:51.065Z,19.20
2023-02-12T13:20:22.280Z,17.47
2023-02-12T13:22:53.944Z,20.97
2023-02-12T13:25:29.837Z,20.33
2023-02-12T13:27:58.700Z,19.67
2023-02-12T13:30:28.630Z,19.70
2023-02-12T13:33:01.370Z,18.20
2023-02-12T13:35:30.528Z,20.57
2023-02-12T13:37:58.202Z,17.90
2023-02-12T13:40:28.329Z,19.83
2023-02-12T13:43:01.164Z,18.50
2023-02-12T13:45:35.816Z,18.93
2023-02-12T13:48:30.260Z,19.63
2023-02-12T13:51:02.926Z,19.10
2023-02-12T13:53:33.641Z,19.13
2023-02-12T13:56:07.503Z,18.80
2023-02-12T13:58:56.270Z,19.90
2023-02-12T14:01:46.797Z,19.67
2023-02-12T14:04:32.685Z,19.63
2023-02-12T14:07:01.944Z,17.83
2023-02-12T14:09:35.365Z,18.87
2023-02-12T14:12:05.674Z,18.10
2023-02-12T14:14:35.363Z,20.70
2023-02-12T14:17:21.737Z,19.17
2023-02-12T14:19:56.748Z,20.40
2023-02-12T14:22:42.191Z,18.77
2023-02-12T14:25:24.676Z,19.00
2023-02-12T14:27:54.235Z,20.53
2023-02-12T14:30:30.670Z,21.10
2023-02-12T14:33:16.216Z,20.03
2023-02-12T14:35:44.428Z,20.30
2023-02-12T14:38:36.798Z,20.37
2023-02-12T14:41:34.217Z,21.53
2023-02-12T14:44:16.759Z,19.83
2023-02-12T14:46:47.433Z,20.93
2023-02-12T14:49:24.416Z,18.70
2023-02-12T14:51:54.808Z,21.17
2023-02-12T14:54:27.063Z,20.47
2023-02-12T14:56:55.660Z,18.00
2023-02-12T14:59:25.553Z,19.67
2023-02-12T15:01:56.050Z,19.67
2023-02-12T15:04:26.681Z,20.37
2023-02-12T15:06:56.350Z,21.00
2023-02-12T15:09:28.328Z,20.30
2023-02-12T15:11:59.573Z,21.37
2023-02-12T15:14:29.319Z,22.53
2023-02-12T15:17:00.200Z,22.73
2023-02-12T15:19:35.757Z,23.20
2023-02-12T15:22:03.438Z,22.60
2023-02-12T15:24:31.089Z,22.80
2023-02-12T15:26:59.691Z,23.17
2023-02-12T15:29:28.785Z,22.60
2023-02-12T15:31:57.741Z,23.47
2023-02-12T15:34:29.023Z,22.23
2023-02-12T15:36:59.484Z,23.10
2023-02-12T15:39:27.962Z,22.53
2023-02-12T15:41:55.877Z,23.93
2023-02-12T15:44:25.593Z,24.30
2023-02-12T15:49:49.108Z,24.33
2023-02-12T15:52:19.104Z,23.90
2023-02-12T15:54:47.137Z,25.97
2023-02-12T15:57:19.865Z,24.70
2023-02-12T15:59:51.569Z,23.53
2023-02-12T16:02:20.805Z,25.43
2023-02-12T16:04:49.848Z,26.10
2023-02-12T16:07:17.773Z,25.43
2023-02-12T16:09:46.013Z,26.43
2023-02-12T16:12:15.629Z,25.27
2023-02-12T16:14:46.571Z,25.63
2023-02-12T16:17:22.359Z,25.33
2023-02-12T16:19:58.805Z,25.77
2023-02-12T16:22:28.502Z,31.47
2023-02-12T16:24:57.550Z,30.60
2023-02-12T16:27:26.146Z,28.63
2023-02-12T16:29:54.765Z,29.93
2023-02-12T16:32:30.146Z,28.40
2023-02-12T16:35:04.391Z,28.27
2023-02-12T16:37:43.174Z,27.23
2023-02-12T16:40:18.673Z,27.10
2023-02-12T16:42:57.221Z,26.13
2023-02-12T16:45:43.831Z,28.10
2023-02-12T16:48:18.089Z,29.80
2023-02-12T16:50:48.997Z,29.53
2023-02-12T16:53:26.106Z,29.60
2023-02-12T16:55:54.030Z,27.40
2023-02-12T16:58:21.753Z,29.00
2023-02-12T17:00:49.968Z,28.17
2023-02-12T17:03:18.623Z,29.90
2023-02-12T17:05:49.509Z,29.27
2023-02-12T17:08:18.944Z,30.23
2023-02-12T17:10:48.210Z,36.17
2023-02-12T17:13:16.467Z,28.20
2023-02-12T17:15:46.631Z,31.13
2023-02-12T17:18:14.339Z,32.00
2023-02-12T17:20:42.173Z,31.13
2023-02-12T17:23:11.380Z,30.93
2023-02-12T17:25:39.040Z,30.50
2023-02-12T17:28:08.910Z,31.23
2023-02-12T17:30:37.442Z,32.93
2023-02-12T17:33:05.236Z,33.33
2023-02-12T17:35:33.053Z,33.20
2023-02-12T17:38:00.743Z,33.07
2023-02-12T17:40:29.756Z,32.13
2023-02-12T17:42:58.452Z,32.23
2023-02-12T17:45:26.139Z,34.33
2023-02-12T17:47:53.826Z,40.73
2023-02-12T17:50:21.663Z,37.97
2023-02-12T17:52:49.946Z,45.70
2023-02-12T17:55:17.894Z,35.70
2023-02-12T17:57:47.002Z,30.73
2023-02-12T18:00:15.334Z,33.23
2023-02-12T18:02:42.999Z,33.63
2023-02-12T18:05:10.723Z,32.40
2023-02-12T18:07:38.702Z,31.30
2023-02-12T18:10:06.950Z,31.60
2023-02-12T18:12:35.110Z,32.40
2023-02-12T18:15:05.071Z,32.53
2023-02-12T18:17:32.904Z,32.53
2023-02-12T18:20:00.653Z,33.87
2023-02-12T18:22:28.314Z,33.37
2023-02-12T18:24:57.683Z,34.73
2023-02-12T18:27:25.509Z,33.27
2023-02-12T18:29:53.162Z,34.93
2023-02-12T18:32:22.188Z,34.20
2023-02-12T18:34:49.865Z,34.23
2023-02-12T18:37:17.497Z,33.37
2023-02-12T18:39:45.202Z,33.40
2023-02-12T18:42:12.961Z,36.30
2023-02-12T18:44:40.745Z,34.37
2023-02-12T18:47:08.388Z,34.47
2023-02-12T18:49:37.619Z,34.27
2023-02-12T18:52:05.910Z,35.33
2023-02-12T18:54:33.637Z,35.07
2023-02-12T18:57:01.343Z,36.47
2023-02-12T18:59:28.982Z,34.37
2023-02-12T19:01:56.789Z,36.17
2023-02-12T19:04:26.673Z,35.43
2023-02-12T19:06:56.007Z,36.27
2023-02-12T19:09:24.553Z,37.33
2023-02-12T19:11:53.084Z,35.10
2023-02-12T19:14:21.852Z,37.03
2023-02-12T19:16:49.671Z,35.83
2023-02-12T19:19:18.261Z,34.90
2023-02-12T19:21:45.901Z,35.03
2023-02-12T19:24:15.871Z,34.00
2023-02-12T19:26:44.977Z,34.77
2023-02-12T19:29:12.659Z,34.53
2023-02-12T19:31:41.893Z,37.90
2023-02-12T19:34:14.649Z,35.67
2023-02-12T19:36:42.327Z,36.97
2023-02-12T19:39:10.173Z,35.20
2023-02-12T19:41:41.140Z,34.30
2023-02-12T19:44:12.283Z,34.23
2023-02-12T19:46:40.677Z,34.20
2023-02-12T19:49:09.090Z,34.37
2023-02-12T19:51:39.592Z,32.83
2023-02-12T19:54:08.115Z,33.73
2023-02-12T19:56:35.932Z,35.23
2023-02-12T19:59:06.414Z,35.67
2023-02-12T20:01:34.683Z,35.83
2023-02-12T20:04:03.467Z,33.80
2023-02-12T20:06:31.897Z,35.70
2023-02-12T20:08:59.741Z,33.83
2023-02-12T20:11:29.334Z,35.03
2023-02-12T20:13:57.100Z,33.57
2023-02-12T20:16:31.194Z,37.40
2023-02-12T20:19:00.623Z,35.83
2023-02-12T20:21:29.722Z,36.67
2023-02-12T20:23:57.732Z,35.93
2023-02-12T20:26:25.490Z,37.77
2023-02-12T20:28:53.221Z,35.37
2023-02-12T20:31:22.969Z,36.10
2023-02-12T20:33:56.078Z,37.07
2023-02-12T20:36:24.021Z,40.50
2023-02-12T20:38:52.595Z,37.20
2023-02-12T20:41:20.321Z,37.87
2023-02-12T20:43:47.997Z,37.50
2023-02-12T20:46:17.879Z,36.53
2023-02-12T20:48:45.583Z,38.93
2023-02-12T20:51:15.318Z,37.27
2023-02-12T20:53:43.412Z,36.80
2023-02-12T20:56:12.206Z,38.97
2023-02-12T20:58:41.250Z,38.23
2023-02-12T21:01:12.440Z,39.53
2023-02-12T21:03:40.480Z,41.00
2023-02-12T21:06:08.419Z,39.07
2023-02-12T21:08:38.045Z,37.77
2023-02-12T21:11:06.415Z,38.50
2023-02-12T21:13:34.090Z,38.33
2023-02-12T21:16:05.618Z,39.57
2023-02-12T21:18:33.304Z,37.13
2023-02-12T21:21:01.564Z,37.27
2023-02-12T21:23:35.461Z,36.53
2023-02-12T21:26:05.314Z,38.43
2023-02-12T21:28:33.970Z,38.47
2023-02-12T21:31:06.449Z,37.77
2023-02-12T21:33:34.232Z,38.57
2023-02-12T21:36:03.929Z,41.03
2023-02-12T21:38:32.731Z,38.53
2023-02-12T21:41:08.007Z,39.17
2023-02-12T21:43:36.489Z,41.50
2023-02-12T21:46:04.255Z,40.40
2023-02-12T21:48:31.964Z,40.37
2023-02-12T21:50:59.937Z,40.50
2023-02-12T21:53:27.896Z,41.77
2023-02-12T21:55:56.320Z,40.47
2023-02-12T21:58:25.547Z,38.07
2023-02-12T22:00:53.228Z,40.33
2023-02-12T22:03:21.100Z,37.10
2023-02-12T22:05:48.825Z,41.20
2023-02-12T22:08:16.494Z,39.77
2023-02-12T22:10:44.163Z,38.67
2023-02-12T22:13:11.936Z,37.53
2023-02-12T22:15:40.959Z,39.10
2023-02-12T22:18:08.607Z,39.77
2023-02-12T22:20:36.308Z,38.63
2023-02-12T22:23:03.974Z,37.97
2023-02-12T22:25:31.656Z,38.90
2023-02-12T22:27:59.371Z,38.30
2023-02-12T22:30:26.986Z,39.20
2023-02-12T22:32:56.025Z,40.47
2023-02-12T22:35:23.694Z,39.07
2023-02-12T22:37:51.365Z,38.23
2023-02-12T22:40:19.030Z,39.73
2023-02-12T22:42:46.709Z,39.43
2023-02-12T22:45:14.340Z,38.70
2023-02-12T22:47:41.961Z,38.77
2023-02-12T22:50:11.719Z,40.60
2023-02-12T22:52:39.785Z,38.47
2023-02-12T22:55:07.407Z,38.67
2023-02-12T22:57:35.105Z,40.80
2023-02-12T23:00:02.873Z,41.13
2023-02-12T23:02:30.599Z,38.77
2023-02-12T23:04:58.267Z,39.37
2023-02-12T23:07:27.249Z,38.47
2023-02-12T23:09:54.893Z,38.83
2023-02-12T23:12:22.701Z,40.50
2023-02-12T23:14:50.362Z,39.60
2023-02-12T23:17:18.036Z,37.73
2023-02-12T23:19:45.803Z,39.43
2023-02-12T23:22:13.500Z,40.80
2023-02-12T23:24:42.497Z,39.47
2023-02-12T23:27:12.043Z,40.37
2023-02-12T23:29:40.345Z,40.07
2023-02-12T23:32:08.235Z,40.73
2023-02-12T23:34:35.999Z,37.00
2023-02-12T23:37:03.730Z,37.43
2023-02-12T23:39:31.409Z,37.47
2023-02-12T23:42:00.447Z,37.73
2023-02-12T23:44:28.134Z,39.57
2023-02-12T23:46:55.754Z,37.53
2023-02-12T23:49:23.561Z,37.63
2023-02-12T23:51:51.627Z,36.00
2023-02-12T23:54:19.259Z,37.13
2023-02-12T23:56:46.990Z,34.53
2023-02-12T23:59:15.995Z,38.60
